Time;durP1;ratioP1;P1;durP2;ratioP2;P2;SDS_P1;SDS_P2;PMS_P1;PMS_P2;Temp;Humidity;BMP_temperature;BMP_pressure;BME280_temperature;BME280_humidity;BME280_pressure;Samples;Min_cycle;Max_cycle;Signal;HPM_P1;HPM_P2
2022/10/07 00:01:53;;;;;;;9.07;8.27;;;13.60;99.90;;;;;;4911828;29;20645;-77
2022/10/07 00:04:32;;;;;;;6.07;5.57;;;13.60;99.90;;;;;;4884441;29;20725;-76
2022/10/07 00:07:01;;;;;;;10.20;9.30;;;13.60;99.90;;;;;;4913436;29;20203;-77
2022/10/07 00:09:27;;;;;;;7.17;4.60;;;13.60;99.90;;;;;;4909234;29;20207;-76
2022/10/07 00:11:54;;;;;;;7.27;4.80;;;13.50;99.90;;;;;;4898620;29;20197;-76
2022/10/07 00:14:21;;;;;;;6.57;4.43;;;13.50;99.90;;;;;;4909345;29;20288;-77
2022/10/07 00:16:48;;;;;;;5.67;5.07;;;13.50;99.90;;;;;;4906706;29;20208;-77
2022/10/07 00:19:16;;;;;;;9.63;4.80;;;13.50;99.90;;;;;;4903922;29;20199;-77
2022/10/07 00:21:43;;;;;;;9.30;4.83;;;13.50;99.90;;;;;;4896636;29;20207;-76
2022/10/07 00:24:10;;;;;;;6.13;4.73;;;13.50;99.90;;;;;;4892139;29;20483;-76
2022/10/07 00:26:37;;;;;;;10.13;4.93;;;13.50;99.90;;;;;;4908332;29;20662;-76
2022/10/07 00:29:05;;;;;;;5.17;4.47;;;13.50;99.90;;;;;;4904423;29;20205;-77
2022/10/07 00:31:33;;;;;;;7.87;7.27;;;13.50;99.90;;;;;;4887845;29;20220;-76
2022/10/07 00:34:03;;;;;;;7.77;4.70;;;13.50;99.90;;;;;;4913002;29;20200;-76
2022/10/07 00:36:33;;;;;;;4.93;4.43;;;13.40;99.90;;;;;;4910529;29;20192;-77
2022/10/07 00:39:02;;;;;;;8.20;7.07;;;13.40;99.90;;;;;;4887097;29;20695;-77
2022/10/07 00:41:31;;;;;;;9.87;8.97;;;13.40;99.90;;;;;;4895161;29;20260;-77
2022/10/07 00:43:59;;;;;;;8.17;6.63;;;13.40;99.90;;;;;;4894741;29;20503;-77
2022/10/07 00:46:31;;;;;;;7.33;5.73;;;13.40;99.90;;;;;;4898249;29;20231;-77
2022/10/07 00:49:01;;;;;;;7.00;5.87;;;13.40;99.90;;;;;;4891711;29;20204;-77
2022/10/07 00:51:30;;;;;;;4.90;4.33;;;13.40;99.90;;;;;;4907991;29;20201;-77
2022/10/07 00:53:58;;;;;;;7.57;6.77;;;13.40;99.90;;;;;;4907173;29;20212;-76
2022/10/07 00:56:26;;;;;;;7.53;4.87;;;13.40;99.90;;;;;;4910702;29;20193;-77
2022/10/07 00:58:54;;;;;;;7.43;5.37;;;13.40;99.90;;;;;;4904468;29;20248;-77
2022/10/07 01:01:21;;;;;;;5.17;4.53;;;13.40;99.90;;;;;;4915540;29;20567;-77
2022/10/07 01:03:49;;;;;;;8.23;7.43;;;13.30;99.90;;;;;;4906509;29;20196;-77
2022/10/07 01:06:16;;;;;;;8.90;8.00;;;13.30;99.90;;;;;;4893622;29;20627;-77
2022/10/07 01:08:45;;;;;;;7.13;4.93;;;13.30;99.90;;;;;;4906953;29;20550;-76
2022/10/07 01:11:22;;;;;;;10.03;9.23;;;13.30;99.90;;;;;;4902981;29;20215;-77
2022/10/07 01:14:00;;;;;;;6.03;4.80;;;13.30;99.90;;;;;;4888142;29;20208;-77
2022/10/07 01:16:34;;;;;;;8.13;5.67;;;13.30;99.90;;;;;;4905521;29;20196;-76
2022/10/07 01:19:17;;;;;;;8.93;5.87;;;13.30;99.90;;;;;;4889980;29;20225;-77
2022/10/07 01:22:00;;;;;;;7.80;7.00;;;13.30;99.90;;;;;;4894279;29;20669;-77
2022/10/07 01:24:39;;;;;;;6.00;5.10;;;13.30;99.90;;;;;;4898412;29;20271;-77
2022/10/07 01:27:10;;;;;;;10.50;9.60;;;13.30;99.90;;;;;;4898643;29;20208;-77
2022/10/07 01:29:42;;;;;;;8.07;7.27;;;13.30;99.90;;;;;;4915508;29;20200;-77
2022/10/07 01:32:16;;;;;;;7.57;6.50;;;13.30;99.90;;;;;;4915168;29;20200;-77
2022/10/07 01:34:45;;;;;;;7.90;7.20;;;13.30;99.90;;;;;;4884876;29;20216;-76
2022/10/07 01:37:16;;;;;;;7.80;6.70;;;13.30;99.90;;;;;;4900281;29;20204;-76
2022/10/07 01:39:48;;;;;;;11.07;10.10;;;13.30;99.90;;;;;;4891204;29;20204;-77
2022/10/07 01:42:17;;;;;;;6.97;6.30;;;13.30;99.90;;;;;;4908959;29;20208;-76
2022/10/07 01:44:47;;;;;;;5.90;5.40;;;13.20;99.90;;;;;;4898062;29;20224;-77
2022/10/07 01:47:14;;;;;;;9.57;5.80;;;13.20;99.90;;;;;;4893949;29;20222;-76
2022/10/07 01:49:41;;;;;;;7.47;5.83;;;13.20;99.90;;;;;;4910163;29;20314;-77
2022/10/07 01:52:22;;;;;;;7.93;7.13;;;13.20;99.90;;;;;;4909332;29;20653;-77
2022/10/07 01:55:10;;;;;;;8.50;7.70;;;13.20;99.90;;;;;;4893808;29;20292;-77
2022/10/07 01:57:47;;;;;;;7.93;5.40;;;13.20;99.90;;;;;;4891508;29;20522;-77
2022/10/07 02:00:16;;;;;;;10.20;8.40;;;13.20;99.90;;;;;;4895846;29;20206;-77
2022/10/07 02:02:56;;;;;;;8.73;7.87;;;13.20;99.90;;;;;;4896321;29;20209;-77
2022/10/07 02:05:33;;;;;;;5.70;4.47;;;13.20;99.90;;;;;;4885864;29;20239;-77
2022/10/07 02:08:15;;;;;;;9.30;7.37;;;13.20;99.90;;;;;;4890181;29;20205;-77
2022/10/07 02:10:53;;;;;;;10.10;7.33;;;13.20;99.90;;;;;;4895386;29;20279;-77
2022/10/07 02:13:33;;;;;;;9.03;6.13;;;13.20;99.90;;;;;;4894483;29;20208;-77
2022/10/07 02:16:04;;;;;;;7.13;6.43;;;13.20;99.90;;;;;;4893069;29;20284;-77
2022/10/07 02:18:35;;;;;;;9.40;5.77;;;13.20;99.90;;;;;;4886266;29;20307;-76
2022/10/07 02:21:05;;;;;;;8.63;7.73;;;13.20;99.90;;;;;;4889160;29;20337;-76
2022/10/07 02:23:35;;;;;;;6.67;5.20;;;13.20;99.90;;;;;;4897053;29;20248;-76
2022/10/07 02:26:03;;;;;;;9.73;8.90;;;13.20;99.90;;;;;;4882914;29;20279;-76
2022/10/07 02:28:34;;;;;;;9.73;8.03;;;13.20;99.90;;;;;;4893446;29;20547;-77
2022/10/07 02:31:03;;;;;;;9.63;6.27;;;13.20;99.90;;;;;;4888308;29;20207;-77
2022/10/07 02:33:32;;;;;;;6.83;6.23;;;13.20;99.90;;;;;;4906499;29;20685;-76
2022/10/07 02:36:04;;;;;;;7.13;6.43;;;13.20;99.90;;;;;;4885582;29;20232;-77
2022/10/07 02:38:32;;;;;;;10.63;8.40;;;13.20;99.90;;;;;;4905300;29;20285;-77
2022/10/07 02:41:11;;;;;;;7.20;6.33;;;13.20;99.90;;;;;;4881732;29;20264;-77
2022/10/07 02:43:43;;;;;;;9.23;8.43;;;13.10;99.90;;;;;;4881754;29;20684;-76
2022/10/07 02:46:16;;;;;;;10.00;8.93;;;13.20;99.90;;;;;;4891340;29;20583;-76
2022/10/07 02:48:47;;;;;;;6.97;5.70;;;13.10;99.90;;;;;;4898065;29;20199;-76
2022/10/07 02:51:20;;;;;;;5.60;5.00;;;13.20;99.90;;;;;;4896924;29;20260;-77
2022/10/07 02:53:51;;;;;;;11.87;8.03;;;13.20;99.90;;;;;;4900676;29;20227;-77
2022/10/07 02:56:20;;;;;;;7.83;5.80;;;13.10;99.90;;;;;;4906579;29;20294;-80
2022/10/07 02:58:50;;;;;;;7.13;5.77;;;13.00;99.90;;;;;;4912360;29;20773;-77
2022/10/07 03:01:23;;;;;;;9.87;8.90;;;13.00;99.90;;;;;;4900395;29;20222;-77
2022/10/07 03:03:51;;;;;;;8.37;7.57;;;12.90;99.90;;;;;;4906902;29;20203;-78
2022/10/07 03:06:19;;;;;;;7.83;7.03;;;13.00;99.90;;;;;;4953330;23;20232;-77
2022/10/07 03:08:46;;;;;;;8.17;5.90;;;12.90;99.90;;;;;;4915939;29;20736;-80
2022/10/07 03:11:14;;;;;;;6.67;5.80;;;12.90;99.90;;;;;;4906440;29;20211;-80
2022/10/07 03:13:41;;;;;;;7.63;6.93;;;12.90;99.90;;;;;;4937388;29;20703;-79
2022/10/07 03:16:09;;;;;;;8.70;7.80;;;12.80;99.90;;;;;;4918906;29;20227;-80
2022/10/07 03:18:36;;;;;;;13.60;12.43;;;12.80;99.90;;;;;;4919140;29;20653;-80
2022/10/07 03:21:16;;;;;;;13.70;9.97;;;12.80;99.90;;;;;;4918378;29;20293;-80
2022/10/07 03:23:43;;;;;;;11.83;10.73;;;12.80;99.90;;;;;;4920302;29;20199;-80
2022/10/07 03:26:11;;;;;;;10.87;6.70;;;12.70;99.90;;;;;;4909402;29;20588;-80
2022/10/07 03:28:39;;;;;;;6.30;5.53;;;12.70;99.90;;;;;;4895365;29;20192;-80
2022/10/07 03:31:10;;;;;;;8.83;7.87;;;12.70;99.90;;;;;;4901607;29;20208;-80
2022/10/07 03:33:42;;;;;;;10.30;9.40;;;12.60;99.90;;;;;;4896004;29;20226;-81
2022/10/07 03:36:09;;;;;;;11.40;10.40;;;12.60;99.90;;;;;;4894172;29;20223;-81
2022/10/07 03:38:38;;;;;;;13.57;12.47;;;12.50;99.90;;;;;;4915109;29;20626;-80
2022/10/07 03:41:05;;;;;;;13.20;12.17;;;12.50;99.90;;;;;;4892965;29;20204;-79
2022/10/07 03:43:32;;;;;;;13.90;12.80;;;12.40;99.90;;;;;;4898901;29;20192;-79
2022/10/07 03:46:01;;;;;;;13.20;12.23;;;12.40;99.90;;;;;;4893911;29;20269;-79
2022/10/07 03:48:30;;;;;;;13.37;12.27;;;12.30;99.90;;;;;;4895116;29;20677;-79
2022/10/07 03:50:58;;;;;;;14.20;13.03;;;12.30;99.90;;;;;;4895869;29;20199;-79
2022/10/07 03:53:28;;;;;;;13.87;12.67;;;12.20;99.90;;;;;;4899758;29;21322;-79
2022/10/07 03:55:56;;;;;;;13.60;12.60;;;12.20;99.90;;;;;;4901940;29;20223;-79
2022/10/07 03:58:23;;;;;;;13.37;12.27;;;12.10;99.90;;;;;;4901879;29;20216;-80
2022/10/07 04:00:50;;;;;;;14.33;13.23;;;12.10;99.90;;;;;;4907479;29;20255;-80
2022/10/07 04:03:18;;;;;;;13.43;12.30;;;12.00;99.90;;;;;;4908521;29;20210;-79
2022/10/07 04:05:59;;;;;;;13.73;12.73;;;11.90;99.90;;;;;;4913253;29;20226;-80
2022/10/07 04:08:28;;;;;;;14.23;13.20;;;11.90;99.90;;;;;;4904928;29;20220;-79
2022/10/07 04:10:56;;;;;;;14.77;13.47;;;11.90;99.90;;;;;;4907803;29;20235;-80
2022/10/07 04:13:23;;;;;;;14.27;13.17;;;11.80;99.90;;;;;;4908944;29;20598;-79
2022/10/07 04:15:52;;;;;;;14.17;12.97;;;11.80;99.90;;;;;;4905209;29;20658;-79
2022/10/07 04:18:20;;;;;;;14.30;13.20;;;11.80;99.90;;;;;;4901788;29;20218;-80
2022/10/07 04:20:47;;;;;;;15.17;13.70;;;11.70;99.90;;;;;;4917653;29;20661;-79
2022/10/07 04:23:16;;;;;;;14.40;13.20;;;11.60;99.90;;;;;;4904207;29;20258;-79
2022/10/07 04:25:44;;;;;;;15.23;14.03;;;11.50;99.90;;;;;;4898372;29;20231;-79
2022/10/07 04:28:18;;;;;;;14.30;13.30;;;11.40;99.90;;;;;;4919575;29;20223;-79
2022/10/07 04:30:50;;;;;;;15.67;14.47;;;11.40;99.90;;;;;;4922942;29;20311;-80
2022/10/07 04:33:18;;;;;;;14.53;13.43;;;11.30;99.90;;;;;;4902998;29;20227;-79
2022/10/07 04:35:45;;;;;;;15.07;13.70;;;11.30;99.90;;;;;;4918880;29;20234;-80
2022/10/07 04:38:14;;;;;;;15.53;14.20;;;11.20;99.90;;;;;;4897020;29;20297;-79
2022/10/07 04:40:46;;;;;;;14.93;13.73;;;11.20;99.90;;;;;;4900525;29;20227;-80
2022/10/07 04:43:26;;;;;;;14.63;13.50;;;11.10;99.90;;;;;;4906461;29;20233;-78
2022/10/07 04:46:05;;;;;;;15.13;13.73;;;11.10;99.90;;;;;;4908230;29;20231;-80
2022/10/07 04:48:35;;;;;;;14.37;13.27;;;11.10;99.90;;;;;;4901599;29;20195;-79
2022/10/07 04:51:04;;;;;;;14.90;13.77;;;11.10;99.90;;;;;;4901620;29;20734;-79
2022/10/07 04:53:32;;;;;;;16.20;14.80;;;11.00;99.90;;;;;;4911845;29;20202;-79
2022/10/07 04:56:01;;;;;;;16.00;14.80;;;11.00;99.90;;;;;;4902353;29;20229;-79
2022/10/07 04:58:29;;;;;;;15.27;14.13;;;11.00;99.90;;;;;;4896047;29;20201;-79
2022/10/07 05:00:57;;;;;;;16.33;15.10;;;11.00;99.90;;;;;;4912062;29;20212;-78
2022/10/07 05:03:28;;;;;;;15.00;13.80;;;11.00;99.90;;;;;;4895256;29;20288;-79
2022/10/07 05:05:56;;;;;;;16.20;14.80;;;11.00;99.90;;;;;;4910441;29;20289;-79
2022/10/07 05:08:25;;;;;;;15.00;13.93;;;11.00;99.90;;;;;;4907330;29;20201;-79
2022/10/07 05:10:57;;;;;;;15.97;14.40;;;10.90;99.90;;;;;;4915737;29;20280;-79
2022/10/07 05:13:28;;;;;;;14.83;13.83;;;10.90;99.90;;;;;;4915384;29;20694;-78
2022/10/07 05:15:57;;;;;;;15.20;13.90;;;10.90;99.90;;;;;;4917160;29;20248;-78
2022/10/07 05:18:26;;;;;;;15.03;14.03;;;10.90;99.90;;;;;;4920025;29;20723;-80
2022/10/07 05:20:56;;;;;;;15.70;14.50;;;10.90;99.90;;;;;;4915103;29;20215;-78
2022/10/07 05:23:27;;;;;;;16.23;14.97;;;11.00;99.90;;;;;;4906912;29;20198;-79
2022/10/07 05:25:59;;;;;;;16.13;14.93;;;11.00;99.90;;;;;;4916556;29;20272;-79
2022/10/07 05:28:28;;;;;;;17.27;15.87;;;11.10;99.90;;;;;;4893529;29;20200;-78
2022/10/07 05:31:05;;;;;;;16.07;14.80;;;11.10;99.90;;;;;;4896264;29;20288;-79
2022/10/07 05:33:32;;;;;;;16.43;15.23;;;11.20;99.90;;;;;;4905978;29;20201;-79
2022/10/07 05:35:59;;;;;;;16.53;15.23;;;11.20;99.90;;;;;;4910507;29;20225;-79
2022/10/07 05:38:27;;;;;;;15.80;14.70;;;11.20;99.90;;;;;;4897377;29;20202;-79
2022/10/07 05:40:59;;;;;;;16.20;15.00;;;11.30;99.90;;;;;;4895952;29;20233;-78
2022/10/07 05:43:30;;;;;;;14.97;13.97;;;11.30;99.90;;;;;;4908233;29;20268;-79
2022/10/07 05:46:02;;;;;;;16.67;15.33;;;11.30;99.90;;;;;;4892143;29;20705;-79
2022/10/07 05:48:31;;;;;;;16.10;15.00;;;11.30;99.90;;;;;;4908148;29;20208;-79
2022/10/07 05:50:59;;;;;;;15.93;14.73;;;11.30;99.90;;;;;;4896374;29;20213;-79
2022/10/07 05:53:29;;;;;;;15.77;14.67;;;11.30;99.90;;;;;;4894066;29;20226;-80
2022/10/07 05:55:58;;;;;;;15.47;14.27;;;11.30;99.90;;;;;;4892227;29;20229;-80
2022/10/07 05:58:28;;;;;;;15.60;14.40;;;11.30;99.90;;;;;;4894820;29;20755;-80
2022/10/07 06:00:57;;;;;;;14.87;13.77;;;11.30;99.90;;;;;;4897507;29;20251;-81
2022/10/07 06:03:26;;;;;;;15.03;13.93;;;11.40;99.90;;;;;;4914049;29;20204;-80
2022/10/07 06:05:56;;;;;;;14.47;13.37;;;11.40;99.90;;;;;;4903703;29;20280;-80
2022/10/07 06:08:25;;;;;;;14.33;13.33;;;11.40;99.90;;;;;;4911956;29;20202;-80
2022/10/07 06:13:50;;;;;;;14.53;13.33;;;11.50;99.90;;;;;;4905148;29;20197;-80
2022/10/07 06:16:17;;;;;;;14.43;13.53;;;11.50;99.90;;;;;;4911234;29;20611;-81
2022/10/07 06:18:44;;;;;;;15.27;14.27;;;11.60;99.90;;;;;;4899203;29;20202;-78
2022/10/07 06:21:12;;;;;;;15.70;14.67;;;11.80;99.90;;;;;;4918178;29;20235;-78
2022/10/07 06:23:39;;;;;;;14.20;13.10;;;11.90;99.90;;;;;;4899680;29;20206;-78
2022/10/07 06:26:10;;;;;;;15.47;14.30;;;12.00;99.90;;;;;;4894170;29;20871;-80
2022/10/07 06:28:39;;;;;;;15.47;14.33;;;12.10;99.90;;;;;;4900949;29;20232;-80
2022/10/07 06:31:09;;;;;;;15.03;13.93;;;12.20;99.90;;;;;;4906285;29;20298;-82
2022/10/07 06:33:37;;;;;;;15.17;14.17;;;12.30;99.90;;;;;;4903031;29;20290;-80
2022/10/07 06:36:05;;;;;;;14.27;13.17;;;12.40;99.90;;;;;;4902856;29;20229;-80
2022/10/07 06:38:32;;;;;;;14.23;13.27;;;12.50;99.90;;;;;;4905261;29;20235;-80
2022/10/07 06:41:00;;;;;;;13.40;12.60;;;12.60;99.90;;;;;;4920272;29;20670;-80
2022/10/07 06:43:31;;;;;;;14.73;13.53;;;12.70;99.90;;;;;;4902829;29;20279;-80
2022/10/07 06:46:06;;;;;;;14.33;13.23;;;12.80;99.90;;;;;;4897037;29;20249;-81
2022/10/07 06:48:36;;;;;;;14.73;13.63;;;12.90;99.90;;;;;;4900524;29;20574;-80
2022/10/07 06:51:03;;;;;;;14.53;13.30;;;13.00;99.90;;;;;;4894770;29;20229;-79
2022/10/07 06:53:32;;;;;;;13.50;12.50;;;13.10;99.90;;;;;;4906793;29;20205;-79
2022/10/07 06:56:02;;;;;;;14.93;13.63;;;13.30;99.90;;;;;;4902341;29;20260;-79
2022/10/07 06:58:32;;;;;;;15.67;14.37;;;13.50;99.90;;;;;;4896294;29;20204;-83
2022/10/07 07:00:59;;;;;;;14.60;13.50;;;13.70;99.90;;;;;;4909260;29;20276;-84
2022/10/07 07:03:26;;;;;;;13.63;12.73;;;14.00;99.90;;;;;;4908517;29;20209;-81
2022/10/07 07:05:56;;;;;;;13.23;12.13;;;14.30;99.90;;;;;;4923832;29;20235;-80
2022/10/07 07:08:30;;;;;;;13.27;11.97;;;14.50;99.90;;;;;;4929324;29;20204;-80
2022/10/07 07:11:04;;;;;;;7.27;5.50;;;14.80;99.90;;;;;;4926830;29;20598;-80
2022/10/07 07:13:34;;;;;;;10.83;9.87;;;15.00;99.90;;;;;;4925050;29;20200;-79
2022/10/07 07:16:01;;;;;;;7.63;6.73;;;15.20;99.90;;;;;;4909661;29;20228;-82
2022/10/07 07:18:33;;;;;;;11.53;10.43;;;15.30;99.90;;;;;;4912577;29;20198;-79
2022/10/07 07:21:03;;;;;;;10.83;10.03;;;15.50;99.90;;;;;;4907733;29;20273;-79
2022/10/07 07:23:32;;;;;;;12.07;11.07;;;15.70;99.90;;;;;;4906162;29;20626;-79
2022/10/07 07:26:01;;;;;;;12.17;11.20;;;16.00;99.90;;;;;;4909136;29;20238;-83
2022/10/07 07:28:27;;;;;;;14.03;12.70;;;16.40;99.90;;;;;;4904042;29;20200;-80
2022/10/07 07:30:55;;;;;;;14.53;13.03;;;16.70;99.90;;;;;;4910965;29;20655;-80
2022/10/07 07:33:22;;;;;;;9.47;6.30;;;16.90;99.90;;;;;;4922866;29;20219;-80
2022/10/07 07:35:49;;;;;;;14.33;13.13;;;17.10;99.90;;;;;;4904813;29;20602;-79
2022/10/07 07:38:19;;;;;;;10.03;7.77;;;17.30;99.90;;;;;;4904407;29;20199;-80
2022/10/07 07:40:46;;;;;;;10.53;9.30;;;17.60;99.90;;;;;;4920177;29;20721;-79
2022/10/07 07:43:13;;;;;;;9.73;7.20;;;17.90;99.90;;;;;;4921927;29;20256;-80
2022/10/07 07:45:40;;;;;;;11.50;7.50;;;18.10;99.90;;;;;;4916724;29;20281;-79
2022/10/07 07:48:07;;;;;;;14.13;12.93;;;18.20;99.90;;;;;;4898417;29;20688;-81
2022/10/07 07:50:35;;;;;;;11.30;10.10;;;18.40;99.90;;;;;;4922264;29;20254;-80
2022/10/07 07:53:04;;;;;;;16.20;14.57;;;18.70;99.90;;;;;;4920978;29;20209;-79
2022/10/07 07:55:33;;;;;;;15.23;13.83;;;18.70;99.90;;;;;;4904188;29;20301;-82
2022/10/07 07:58:00;;;;;;;15.03;13.70;;;18.90;99.90;;;;;;4921446;29;20745;-80
2022/10/07 08:00:27;;;;;;;16.10;14.63;;;19.10;99.90;;;;;;4902744;29;20717;-79
2022/10/07 08:03:02;;;;;;;14.90;13.43;;;19.20;99.90;;;;;;4911456;29;20202;-82
2022/10/07 08:05:30;;;;;;;11.90;8.87;;;19.20;99.90;;;;;;4901389;29;20246;-80
2022/10/07 08:07:58;;;;;;;14.10;12.90;;;19.20;99.90;;;;;;4900016;29;20695;-80
2022/10/07 08:10:26;;;;;;;12.53;9.10;;;19.30;99.90;;;;;;4898949;29;20612;-79
2022/10/07 08:12:55;;;;;;;10.67;8.03;;;19.10;99.90;;;;;;4907799;29;20302;-79
2022/10/07 08:15:23;;;;;;;10.77;8.80;;;19.20;99.90;;;;;;4901956;29;20307;-79
2022/10/07 08:17:51;;;;;;;12.17;11.07;;;19.50;99.90;;;;;;4899350;29;20614;-79
2022/10/07 08:20:18;;;;;;;16.73;15.07;;;19.50;99.90;;;;;;4903605;29;20681;-79
2022/10/07 08:22:46;;;;;;;9.47;7.83;;;19.40;99.90;;;;;;4916205;29;20197;-80
2022/10/07 08:25:15;;;;;;;11.03;8.47;;;19.50;99.90;;;;;;4912780;29;20230;-79
2022/10/07 08:27:43;;;;;;;10.43;7.93;;;19.50;99.90;;;;;;4905056;29;20199;-79
2022/10/07 08:30:14;;;;;;;11.23;9.30;;;19.50;99.90;;;;;;4902721;29;20199;-81
2022/10/07 08:32:41;;;;;;;14.83;13.40;;;19.60;99.90;;;;;;4903492;29;20200;-79
2022/10/07 08:35:08;;;;;;;15.97;14.57;;;19.50;99.90;;;;;;4914788;29;20227;-80
2022/10/07 08:37:35;;;;;;;11.63;10.43;;;19.20;99.90;;;;;;4900674;29;20207;-79
2022/10/07 08:40:02;;;;;;;8.10;7.00;;;19.20;99.90;;;;;;4902067;29;20231;-80
2022/10/07 08:42:34;;;;;;;7.87;7.07;;;19.70;99.90;;;;;;4901462;29;20254;-78
2022/10/07 08:45:01;;;;;;;9.47;8.40;;;19.80;99.90;;;;;;4901701;29;20223;-79
2022/10/07 08:47:35;;;;;;;13.90;12.63;;;19.60;99.90;;;;;;4892187;29;20279;-79
2022/10/07 08:50:06;;;;;;;15.07;13.67;;;19.50;99.90;;;;;;4902009;29;20204;-80
2022/10/07 08:52:44;;;;;;;13.70;12.50;;;19.60;99.90;;;;;;4901772;29;20284;-79
2022/10/07 08:55:18;;;;;;;14.90;13.67;;;19.50;99.90;;;;;;4903955;29;20228;-79
2022/10/07 08:58:03;;;;;;;14.10;12.90;;;19.40;99.90;;;;;;4900161;29;20711;-78
2022/10/07 09:00:38;;;;;;;14.87;13.77;;;19.50;99.90;;;;;;4909510;29;20208;-78
2022/10/07 09:03:16;;;;;;;8.83;7.93;;;19.70;99.90;;;;;;4895863;29;20682;-79
2022/10/07 09:05:48;;;;;;;11.13;7.60;;;19.50;99.90;;;;;;4910244;29;20227;-81
2022/10/07 09:08:22;;;;;;;7.97;6.47;;;19.40;99.90;;;;;;4917256;29;20204;-78
2022/10/07 09:10:52;;;;;;;9.00;6.40;;;19.30;99.90;;;;;;4914169;29;20204;-78
2022/10/07 09:13:21;;;;;;;6.27;5.17;;;19.00;99.90;;;;;;4916722;29;20270;-78
2022/10/07 09:16:05;;;;;;;8.27;7.50;;;19.10;99.90;;;;;;4902069;29;20227;-79
2022/10/07 09:18:38;;;;;;;6.80;6.10;;;19.10;99.90;;;;;;4898423;29;20286;-79
2022/10/07 09:21:10;;;;;;;12.70;11.60;;;18.90;99.90;;;;;;4911321;29;20255;-78
2022/10/07 09:23:38;;;;;;;11.77;10.87;;;18.80;99.90;;;;;;4897786;29;20212;-79
2022/10/07 09:26:10;;;;;;;7.23;6.13;;;18.70;99.90;;;;;;4904003;29;20248;-79
2022/10/07 09:28:37;;;;;;;7.10;5.80;;;18.90;99.90;;;;;;4916585;29;20203;-81
2022/10/07 09:31:04;;;;;;;7.93;6.10;;;18.90;99.90;;;;;;4917979;29;20717;-79
2022/10/07 09:33:36;;;;;;;7.17;6.03;;;19.00;99.90;;;;;;4894956;29;20237;-79
2022/10/07 09:36:07;;;;;;;9.40;8.10;;;19.00;99.90;;;;;;4902499;29;20323;-79
2022/10/07 09:38:36;;;;;;;9.00;7.93;;;18.90;99.90;;;;;;4915333;29;20215;-79
2022/10/07 09:41:15;;;;;;;8.47;7.40;;;18.70;99.90;;;;;;4916926;29;20212;-79
2022/10/07 09:43:59;;;;;;;8.53;7.07;;;18.60;99.90;;;;;;4914441;29;20207;-78
2022/10/07 09:46:45;;;;;;;14.47;13.37;;;18.60;99.90;;;;;;4901912;29;20231;-79
2022/10/07 09:49:48;;;;;;;8.33;6.53;;;18.70;99.90;;;;;;4900863;29;20214;-79
2022/10/07 09:52:18;;;;;;;8.03;6.40;;;18.80;99.90;;;;;;4830263;29;20214;-78
2022/10/07 09:54:47;;;;;;;7.73;6.90;;;18.90;99.90;;;;;;4827110;29;20229;-78
2022/10/07 09:57:26;;;;;;;7.40;6.27;;;19.00;99.90;;;;;;4866171;29;20231;-79
2022/10/07 10:00:24;;;;;;;8.03;6.50;;;19.00;99.90;;;;;;4906740;29;20204;-80
2022/10/07 10:02:55;;;;;;;7.93;7.07;;;19.10;99.90;;;;;;4894141;29;20260;-83
2022/10/07 10:05:27;;;;;;;11.00;10.00;;;19.00;99.90;;;;;;4912603;29;20255;-80
2022/10/07 10:07:57;;;;;;;10.00;8.97;;;19.20;99.90;;;;;;4915659;29;20214;-79
2022/10/07 10:10:27;;;;;;;9.77;8.87;;;19.20;99.90;;;;;;4897448;29;20580;-79
2022/10/07 10:12:56;;;;;;;9.80;8.80;;;19.30;99.90;;;;;;4902173;29;20206;-80
2022/10/07 10:15:30;;;;;;;9.30;8.47;;;19.50;99.90;;;;;;4935259;29;20260;-79
2022/10/07 10:17:57;;;;;;;8.90;8.20;;;19.40;99.90;;;;;;4918736;29;20298;-80
2022/10/07 10:20:32;;;;;;;8.70;7.90;;;19.50;99.90;;;;;;4898832;29;20216;-80
2022/10/07 10:23:01;;;;;;;10.20;9.30;;;19.50;99.90;;;;;;4900171;29;20223;-80
2022/10/07 10:28:32;;;;;;;11.50;10.60;;;19.40;99.90;;;;;;4900375;29;20231;-80
2022/10/07 10:31:09;;;;;;;13.37;12.03;;;19.40;99.90;;;;;;4899537;29;20218;-79
2022/10/07 10:33:41;;;;;;;11.93;10.93;;;19.30;99.90;;;;;;4914165;29;20208;-82
2022/10/07 10:36:18;;;;;;;10.17;9.37;;;19.40;99.90;;;;;;4908288;29;20631;-80
2022/10/07 10:38:50;;;;;;;12.90;11.90;;;19.40;99.90;;;;;;4920449;29;20550;-79
2022/10/07 10:41:30;;;;;;;7.53;6.13;;;19.20;99.90;;;;;;4932593;29;20219;-79
2022/10/07 10:44:21;;;;;;;11.37;10.53;;;19.30;99.90;;;;;;4935076;29;20199;-79
2022/10/07 10:46:58;;;;;;;12.20;11.20;;;19.40;99.90;;;;;;4930294;29;20227;-78
2022/10/07 10:49:30;;;;;;;7.50;6.27;;;19.40;99.90;;;;;;4913365;29;20207;-78
2022/10/07 10:52:14;;;;;;;6.53;5.87;;;19.30;99.90;;;;;;4909138;29;20207;-79
2022/10/07 10:54:57;;;;;;;6.03;5.43;;;19.20;99.90;;;;;;4929332;29;20255;-79
2022/10/07 10:57:37;;;;;;;6.93;5.43;;;19.20;99.90;;;;;;4932386;29;20188;-80
2022/10/07 11:00:10;;;;;;;5.67;5.07;;;19.00;99.90;;;;;;4934187;29;20214;-80
2022/10/07 11:03:04;;;;;;;6.77;5.37;;;19.20;99.90;;;;;;4933009;29;20199;-79
2022/10/07 11:05:34;;;;;;;5.50;5.00;;;19.20;99.90;;;;;;4911219;29;20268;-78
2022/10/07 11:08:09;;;;;;;6.30;4.57;;;19.20;99.90;;;;;;4908199;29;20219;-78
2022/10/07 11:10:40;;;;;;;6.00;5.20;;;19.20;99.90;;;;;;4898024;29;20684;-78
2022/10/07 11:13:22;;;;;;;6.63;5.50;;;19.10;99.90;;;;;;4903707;29;20309;-78
2022/10/07 11:15:53;;;;;;;6.93;5.10;;;19.00;99.90;;;;;;4899817;29;20231;-80
2022/10/07 11:18:27;;;;;;;6.23;5.20;;;18.90;99.90;;;;;;4901874;29;20208;-78
2022/10/07 11:20:55;;;;;;;6.23;4.97;;;19.00;99.90;;;;;;4902083;29;20228;-78
2022/10/07 11:23:33;;;;;;;8.27;5.63;;;19.00;99.90;;;;;;4912487;29;20207;-79
2022/10/07 11:26:06;;;;;;;7.83;6.07;;;19.00;99.90;;;;;;4913823;29;20308;-80
2022/10/07 11:28:36;;;;;;;6.00;5.40;;;18.90;99.90;;;;;;4910023;29;20197;-78
2022/10/07 11:31:09;;;;;;;5.60;4.70;;;19.00;99.90;;;;;;4900868;29;20207;-79
2022/10/07 11:33:45;;;;;;;5.50;4.57;;;19.00;99.90;;;;;;4896607;29;20201;-78
2022/10/07 11:36:17;;;;;;;5.17;4.67;;;19.20;99.90;;;;;;4917905;29;20724;-78
2022/10/07 11:38:46;;;;;;;7.97;5.40;;;19.30;99.90;;;;;;4915942;29;20255;-79
2022/10/07 11:41:20;;;;;;;7.23;5.50;;;19.40;99.90;;;;;;4914738;29;20212;-79
2022/10/07 11:43:52;;;;;;;5.60;4.37;;;19.40;99.90;;;;;;4914516;29;20211;-80
2022/10/07 11:46:23;;;;;;;4.90;4.40;;;19.50;99.90;;;;;;4897201;29;20221;-80
2022/10/07 11:48:59;;;;;;;8.10;7.40;;;19.60;99.90;;;;;;4918465;29;20208;-78
2022/10/07 11:51:29;;;;;;;9.43;8.47;;;19.60;99.90;;;;;;4913324;29;20191;-78
2022/10/07 11:54:01;;;;;;;7.20;6.60;;;19.50;99.90;;;;;;4898869;29;20238;-80
2022/10/07 11:56:38;;;;;;;7.47;4.97;;;19.50;99.90;;;;;;4901424;29;20272;-78
2022/10/07 11:59:07;;;;;;;5.37;4.83;;;19.60;99.90;;;;;;4888294;29;20242;-79
2022/10/07 12:01:52;;;;;;;6.43;5.07;;;19.60;99.90;;;;;;4907327;29;20230;-79
2022/10/07 12:04:37;;;;;;;7.53;5.03;;;19.60;99.90;;;;;;4920391;29;20208;-78
2022/10/07 12:07:36;;;;;;;5.70;4.90;;;19.60;99.90;;;;;;4915439;29;20227;-77
2022/10/07 12:10:24;;;;;;;6.07;4.77;;;19.50;99.90;;;;;;4923031;29;20199;-80
2022/10/07 12:12:56;;;;;;;5.93;4.80;;;19.60;99.90;;;;;;4902544;29;20204;-79
2022/10/07 12:15:39;;;;;;;6.70;5.13;;;19.50;99.90;;;;;;4912592;29;20298;-84
2022/10/07 12:18:26;;;;;;;5.43;4.50;;;19.40;99.90;;;;;;4899632;29;20211;-81
2022/10/07 12:21:07;;;;;;;10.27;9.57;;;19.40;99.90;;;;;;4911769;29;20211;-79
2022/10/07 12:23:45;;;;;;;5.87;5.40;;;19.50;99.90;;;;;;4910611;29;20307;-79
2022/10/07 12:26:50;;;;;;;6.33;4.90;;;19.70;99.90;;;;;;4896820;29;20780;-82
2022/10/07 12:29:47;;;;;;;5.23;4.73;;;19.60;99.90;;;;;;4911797;29;20292;-79
2022/10/07 12:32:39;;;;;;;4.77;4.30;;;19.60;99.90;;;;;;4903538;29;20199;-78
2022/10/07 12:35:36;;;;;;;4.73;4.17;;;19.60;99.90;;;;;;4904456;29;20224;-78
2022/10/07 12:38:12;;;;;;;5.00;4.50;;;19.70;99.90;;;;;;4913385;29;20578;-78
2022/10/07 12:40:42;;;;;;;5.63;4.70;;;19.60;99.90;;;;;;4896593;29;20206;-78
2022/10/07 12:43:25;;;;;;;5.80;5.00;;;19.70;99.90;;;;;;4920421;29;20415;-78
2022/10/07 12:45:53;;;;;;;5.33;4.20;;;19.60;99.90;;;;;;4898977;29;20228;-78
2022/10/07 12:48:23;;;;;;;4.77;4.33;;;19.50;99.90;;;;;;4901405;29;20208;-79
2022/10/07 12:50:53;;;;;;;10.57;9.77;;;19.50;99.90;;;;;;4912481;29;20196;-79
2022/10/07 12:53:25;;;;;;;10.43;9.73;;;19.50;99.90;;;;;;4916247;29;20210;-79
2022/10/07 12:55:55;;;;;;;11.07;10.27;;;19.70;99.90;;;;;;4897980;29;20224;-79
2022/10/07 13:01:49;;;;;;;11.27;10.50;;;19.80;99.90;;;;;;4905676;29;20635;-79
2022/10/07 13:04:38;;;;;;;11.13;10.33;;;19.70;99.90;;;;;;4907547;29;20206;-79
2022/10/07 13:07:42;;;;;;;11.13;10.33;;;19.70;99.90;;;;;;4904589;29;20704;-80
2022/10/07 13:10:30;;;;;;;11.37;10.47;;;19.70;99.90;;;;;;4906593;29;20203;-79
2022/10/07 13:13:00;;;;;;;11.27;10.33;;;19.60;99.90;;;;;;4896076;29;20465;-79